sensor_id;sensor_type;location;lat;lon;timestamp;temperature;humidity
23147;DHT22;11742;53.532;-1.478;2023-04-25T00:02:37;11.20;62.40
23147;DHT22;11742;53.532;-1.478;2023-04-25T00:05:21;11.10;62.30
23147;DHT22;11742;53.532;-1.478;2023-04-25T00:08:07;11.10;62.30
23147;DHT22;11742;53.532;-1.478;2023-04-25T00:10:51;11.10;62.40
23147;DHT22;11742;53.532;-1.478;2023-04-25T00:13:35;11.00;62.40
23147;DHT22;11742;53.532;-1.478;2023-04-25T00:16:19;11.00;62.40
23147;DHT22;11742;53.532;-1.478;2023-04-25T00:19:03;11.00;62.50
23147;DHT22;11742;53.532;-1.478;2023-04-25T00:21:48;10.90;62.40
23147;DHT22;11742;53.532;-1.478;2023-04-25T00:24:33;10.90;62.60
23147;DHT22;11742;53.532;-1.478;2023-04-25T00:27:17;10.90;62.50
23147;DHT22;11742;53.532;-1.478;2023-04-25T00:30:01;10.80;62.50
23147;DHT22;11742;53.532;-1.478;2023-04-25T00:32:46;10.80;62.60
23147;DHT22;11742;53.532;-1.478;2023-04-25T00:35:31;10.80;62.60
23147;DHT22;11742;53.532;-1.478;2023-04-25T00:38:15;10.80;62.60
23147;DHT22;11742;53.532;-1.478;2023-04-25T00:40:59;10.70;62.60
23147;DHT22;11742;53.532;-1.478;2023-04-25T00:43:43;10.70;62.60
23147;DHT22;11742;53.532;-1.478;2023-04-25T00:46:28;10.70;62.60
23147;DHT22;11742;53.532;-1.478;2023-04-25T00:49:13;10.60;62.60
23147;DHT22;11742;53.532;-1.478;2023-04-25T00:51:59;10.60;62.70
23147;DHT22;11742;53.532;-1.478;2023-04-25T00:54:43;10.50;62.60
23147;DHT22;11742;53.532;-1.478;2023-04-25T00:57:27;10.50;62.60
23147;DHT22;11742;53.532;-1.478;2023-04-25T01:00:12;10.50;62.60
23147;DHT22;11742;53.532;-1.478;2023-04-25T01:02:58;10.50;62.70
23147;DHT22;11742;53.532;-1.478;2023-04-25T01:05:42;10.40;62.70
23147;DHT22;11742;53.532;-1.478;2023-04-25T01:08:26;10.40;62.60
23147;DHT22;11742;53.532;-1.478;2023-04-25T01:11:11;10.40;63.50
23147;DHT22;11742;53.532;-1.478;2023-04-25T01:13:55;10.40;62.70
23147;DHT22;11742;53.532;-1.478;2023-04-25T01:16:39;10.30;62.70
23147;DHT22;11742;53.532;-1.478;2023-04-25T01:19:24;10.30;62.70
23147;DHT22;11742;53.532;-1.478;2023-04-25T01:22:08;10.20;62.70
23147;DHT22;11742;53.532;-1.478;2023-04-25T01:24:54;10.20;62.70
23147;DHT22;11742;53.532;-1.478;2023-04-25T01:27:38;10.20;62.80
23147;DHT22;11742;53.532;-1.478;2023-04-25T01:30:23;10.20;62.80
23147;DHT22;11742;53.532;-1.478;2023-04-25T01:33:08;10.10;62.80
23147;DHT22;11742;53.532;-1.478;2023-04-25T01:35:52;10.10;62.80
23147;DHT22;11742;53.532;-1.478;2023-04-25T01:38:36;10.10;62.90
23147;DHT22;11742;53.532;-1.478;2023-04-25T01:41:21;10.00;62.80
23147;DHT22;11742;53.532;-1.478;2023-04-25T01:44:07;10.00;62.80
23147;DHT22;11742;53.532;-1.478;2023-04-25T01:46:51;10.00;62.90
23147;DHT22;11742;53.532;-1.478;2023-04-25T01:49:35;10.00;62.90
23147;DHT22;11742;53.532;-1.478;2023-04-25T01:52:20;9.90;62.90
23147;DHT22;11742;53.532;-1.478;2023-04-25T01:55:05;9.90;62.90
23147;DHT22;11742;53.532;-1.478;2023-04-25T01:57:49;9.90;62.90
23147;DHT22;11742;53.532;-1.478;2023-04-25T02:00:33;9.80;62.90
23147;DHT22;11742;53.532;-1.478;2023-04-25T02:03:18;9.80;63.00
23147;DHT22;11742;53.532;-1.478;2023-04-25T02:06:02;9.80;62.90
23147;DHT22;11742;53.532;-1.478;2023-04-25T02:08:46;9.80;63.00
23147;DHT22;11742;53.532;-1.478;2023-04-25T02:11:30;9.70;63.00
23147;DHT22;11742;53.532;-1.478;2023-04-25T02:14:15;9.70;63.00
23147;DHT22;11742;53.532;-1.478;2023-04-25T02:16:59;9.70;63.10
23147;DHT22;11742;53.532;-1.478;2023-04-25T02:19:44;9.70;63.10
23147;DHT22;11742;53.532;-1.478;2023-04-25T02:22:28;9.60;63.10
23147;DHT22;11742;53.532;-1.478;2023-04-25T02:25:14;9.60;63.00
23147;DHT22;11742;53.532;-1.478;2023-04-25T02:27:59;9.60;63.00
23147;DHT22;11742;53.532;-1.478;2023-04-25T02:30:44;9.50;63.00
23147;DHT22;11742;53.532;-1.478;2023-04-25T02:33:28;9.50;63.00
23147;DHT22;11742;53.532;-1.478;2023-04-25T02:36:12;9.50;63.10
23147;DHT22;11742;53.532;-1.478;2023-04-25T02:38:56;9.50;63.00
23147;DHT22;11742;53.532;-1.478;2023-04-25T02:41:40;9.50;63.10
23147;DHT22;11742;53.532;-1.478;2023-04-25T02:44:25;9.40;63.00
23147;DHT22;11742;53.532;-1.478;2023-04-25T02:47:09;9.40;63.00
23147;DHT22;11742;53.532;-1.478;2023-04-25T02:49:53;9.40;63.10
23147;DHT22;11742;53.532;-1.478;2023-04-25T02:52:38;9.30;63.00
23147;DHT22;11742;53.532;-1.478;2023-04-25T02:55:22;9.30;63.00
23147;DHT22;11742;53.532;-1.478;2023-04-25T02:58:06;9.30;63.00
23147;DHT22;11742;53.532;-1.478;2023-04-25T03:00:51;9.20;63.00
23147;DHT22;11742;53.532;-1.478;2023-04-25T03:03:35;9.20;63.00
23147;DHT22;11742;53.532;-1.478;2023-04-25T03:06:19;9.20;63.20
23147;DHT22;11742;53.532;-1.478;2023-04-25T03:09:04;9.20;63.20
23147;DHT22;11742;53.532;-1.478;2023-04-25T03:11:48;9.10;63.20
23147;DHT22;11742;53.532;-1.478;2023-04-25T03:14:32;9.10;63.20
23147;DHT22;11742;53.532;-1.478;2023-04-25T03:17:16;9.10;63.30
23147;DHT22;11742;53.532;-1.478;2023-04-25T03:20:01;9.10;63.30
23147;DHT22;11742;53.532;-1.478;2023-04-25T03:22:45;9.10;63.40
23147;DHT22;11742;53.532;-1.478;2023-04-25T03:25:29;9.00;63.40
23147;DHT22;11742;53.532;-1.478;2023-04-25T03:28:14;9.00;63.40
23147;DHT22;11742;53.532;-1.478;2023-04-25T03:30:58;9.00;63.50
23147;DHT22;11742;53.532;-1.478;2023-04-25T03:33:43;9.00;63.60
23147;DHT22;11742;53.532;-1.478;2023-04-25T03:36:27;8.90;63.40
23147;DHT22;11742;53.532;-1.478;2023-04-25T03:39:11;8.90;63.50
23147;DHT22;11742;53.532;-1.478;2023-04-25T03:41:55;8.90;63.60
23147;DHT22;11742;53.532;-1.478;2023-04-25T03:44:40;8.80;63.50
23147;DHT22;11742;53.532;-1.478;2023-04-25T03:47:24;8.80;63.50
23147;DHT22;11742;53.532;-1.478;2023-04-25T03:50:08;8.80;63.60
23147;DHT22;11742;53.532;-1.478;2023-04-25T03:52:52;8.80;63.60
23147;DHT22;11742;53.532;-1.478;2023-04-25T03:55:37;8.80;63.60
23147;DHT22;11742;53.532;-1.478;2023-04-25T03:58:21;8.80;63.70
23147;DHT22;11742;53.532;-1.478;2023-04-25T04:01:07;8.70;63.60
23147;DHT22;11742;53.532;-1.478;2023-04-25T04:03:51;8.70;63.60
23147;DHT22;11742;53.532;-1.478;2023-04-25T04:06:36;8.70;63.70
23147;DHT22;11742;53.532;-1.478;2023-04-25T04:09:20;8.60;63.70
23147;DHT22;11742;53.532;-1.478;2023-04-25T04:12:04;8.60;63.70
23147;DHT22;11742;53.532;-1.478;2023-04-25T04:14:48;8.60;63.70
23147;DHT22;11742;53.532;-1.478;2023-04-25T04:17:33;8.60;63.80
23147;DHT22;11742;53.532;-1.478;2023-04-25T04:20:17;8.60;63.80
23147;DHT22;11742;53.532;-1.478;2023-04-25T04:23:02;8.50;63.80
23147;DHT22;11742;53.532;-1.478;2023-04-25T04:25:46;8.50;63.70
23147;DHT22;11742;53.532;-1.478;2023-04-25T04:28:31;8.50;63.70
23147;DHT22;11742;53.532;-1.478;2023-04-25T04:31:16;8.50;63.80
23147;DHT22;11742;53.532;-1.478;2023-04-25T04:34:00;8.50;63.80
23147;DHT22;11742;53.532;-1.478;2023-04-25T04:36:45;8.40;63.80
23147;DHT22;11742;53.532;-1.478;2023-04-25T04:39:30;8.40;63.90
23147;DHT22;11742;53.532;-1.478;2023-04-25T04:42:14;8.40;63.90
23147;DHT22;11742;53.532;-1.478;2023-04-25T04:44:59;8.40;63.90
23147;DHT22;11742;53.532;-1.478;2023-04-25T04:47:45;8.30;63.90
23147;DHT22;11742;53.532;-1.478;2023-04-25T04:50:30;8.30;63.90
23147;DHT22;11742;53.532;-1.478;2023-04-25T04:53:16;8.30;63.90
23147;DHT22;11742;53.532;-1.478;2023-04-25T04:56:00;8.30;63.90
23147;DHT22;11742;53.532;-1.478;2023-04-25T04:58:44;8.20;64.00
23147;DHT22;11742;53.532;-1.478;2023-04-25T05:01:29;8.20;64.00
23147;DHT22;11742;53.532;-1.478;2023-04-25T05:04:14;8.20;64.00
23147;DHT22;11742;53.532;-1.478;2023-04-25T05:06:58;8.20;64.10
23147;DHT22;11742;53.532;-1.478;2023-04-25T05:09:43;8.20;64.20
23147;DHT22;11742;53.532;-1.478;2023-04-25T05:12:30;8.10;64.10
23147;DHT22;11742;53.532;-1.478;2023-04-25T05:15:14;8.10;64.10
23147;DHT22;11742;53.532;-1.478;2023-04-25T05:17:58;8.10;64.20
23147;DHT22;11742;53.532;-1.478;2023-04-25T05:20:42;8.10;64.30
23147;DHT22;11742;53.532;-1.478;2023-04-25T05:23:27;8.10;64.20
23147;DHT22;11742;53.532;-1.478;2023-04-25T05:26:11;8.10;64.40
23147;DHT22;11742;53.532;-1.478;2023-04-25T05:28:57;8.00;64.40
23147;DHT22;11742;53.532;-1.478;2023-04-25T05:31:41;8.00;64.40
23147;DHT22;11742;53.532;-1.478;2023-04-25T05:34:26;8.00;64.50
23147;DHT22;11742;53.532;-1.478;2023-04-25T05:37:10;8.00;64.60
23147;DHT22;11742;53.532;-1.478;2023-04-25T05:39:54;8.00;64.50
23147;DHT22;11742;53.532;-1.478;2023-04-25T05:42:38;8.00;64.60
23147;DHT22;11742;53.532;-1.478;2023-04-25T05:45:23;7.90;64.60
23147;DHT22;11742;53.532;-1.478;2023-04-25T05:48:07;7.90;64.60
23147;DHT22;11742;53.532;-1.478;2023-04-25T05:50:51;7.90;64.60
23147;DHT22;11742;53.532;-1.478;2023-04-25T05:53:35;7.90;64.70
23147;DHT22;11742;53.532;-1.478;2023-04-25T05:56:20;7.90;64.70
23147;DHT22;11742;53.532;-1.478;2023-04-25T05:59:04;7.90;64.70
23147;DHT22;11742;53.532;-1.478;2023-04-25T06:01:49;7.90;64.80
23147;DHT22;11742;53.532;-1.478;2023-04-25T06:04:33;7.90;64.80
23147;DHT22;11742;53.532;-1.478;2023-04-25T06:07:17;7.90;64.90
23147;DHT22;11742;53.532;-1.478;2023-04-25T06:10:02;7.90;65.00
23147;DHT22;11742;53.532;-1.478;2023-04-25T06:12:49;7.80;65.00
23147;DHT22;11742;53.532;-1.478;2023-04-25T06:15:33;7.80;65.00
23147;DHT22;11742;53.532;-1.478;2023-04-25T06:18:17;7.80;65.20
23147;DHT22;11742;53.532;-1.478;2023-04-25T06:21:01;7.80;65.10
23147;DHT22;11742;53.532;-1.478;2023-04-25T06:23:46;7.80;65.30
23147;DHT22;11742;53.532;-1.478;2023-04-25T06:26:30;7.80;65.40
23147;DHT22;11742;53.532;-1.478;2023-04-25T06:29:14;7.80;65.50
23147;DHT22;11742;53.532;-1.478;2023-04-25T06:31:58;7.80;65.60
23147;DHT22;11742;53.532;-1.478;2023-04-25T06:34:43;7.90;65.70
23147;DHT22;11742;53.532;-1.478;2023-04-25T06:37:27;7.90;65.70
23147;DHT22;11742;53.532;-1.478;2023-04-25T06:40:11;7.90;65.70
23147;DHT22;11742;53.532;-1.478;2023-04-25T06:42:55;7.90;65.70
23147;DHT22;11742;53.532;-1.478;2023-04-25T06:45:40;7.90;65.70
23147;DHT22;11742;53.532;-1.478;2023-04-25T06:48:24;7.90;65.80
23147;DHT22;11742;53.532;-1.478;2023-04-25T06:51:09;7.90;65.80
23147;DHT22;11742;53.532;-1.478;2023-04-25T06:53:53;7.90;66.00
23147;DHT22;11742;53.532;-1.478;2023-04-25T06:56:37;8.00;66.20
23147;DHT22;11742;53.532;-1.478;2023-04-25T06:59:22;8.00;66.30
23147;DHT22;11742;53.532;-1.478;2023-04-25T07:02:06;8.00;66.40
23147;DHT22;11742;53.532;-1.478;2023-04-25T07:04:50;8.10;66.50
23147;DHT22;11742;53.532;-1.478;2023-04-25T07:07:34;8.10;66.60
23147;DHT22;11742;53.532;-1.478;2023-04-25T07:10:19;8.20;66.80
23147;DHT22;11742;53.532;-1.478;2023-04-25T07:13:05;8.10;66.80
23147;DHT22;11742;53.532;-1.478;2023-04-25T07:15:49;8.20;67.00
23147;DHT22;11742;53.532;-1.478;2023-04-25T07:18:33;8.20;67.20
23147;DHT22;11742;53.532;-1.478;2023-04-25T07:21:17;8.30;67.30
23147;DHT22;11742;53.532;-1.478;2023-04-25T07:24:02;8.30;67.40
23147;DHT22;11742;53.532;-1.478;2023-04-25T07:26:46;8.40;67.50
23147;DHT22;11742;53.532;-1.478;2023-04-25T07:29:30;8.50;67.60
23147;DHT22;11742;53.532;-1.478;2023-04-25T07:32:15;8.50;67.90
23147;DHT22;11742;53.532;-1.478;2023-04-25T07:34:59;8.60;68.10
23147;DHT22;11742;53.532;-1.478;2023-04-25T07:37:45;8.60;68.20
23147;DHT22;11742;53.532;-1.478;2023-04-25T07:40:29;8.70;68.40
23147;DHT22;11742;53.532;-1.478;2023-04-25T07:43:14;8.80;68.30
23147;DHT22;11742;53.532;-1.478;2023-04-25T07:46:00;8.90;68.20
23147;DHT22;11742;53.532;-1.478;2023-04-25T07:48:44;9.00;68.00
23147;DHT22;11742;53.532;-1.478;2023-04-25T07:51:28;9.00;67.90
23147;DHT22;11742;53.532;-1.478;2023-04-25T07:54:13;9.10;67.90
23147;DHT22;11742;53.532;-1.478;2023-04-25T07:56:58;9.20;67.90
23147;DHT22;11742;53.532;-1.478;2023-04-25T07:59:42;9.30;68.10
23147;DHT22;11742;53.532;-1.478;2023-04-25T08:02:26;9.30;68.10
23147;DHT22;11742;53.532;-1.478;2023-04-25T08:05:12;9.40;68.20
23147;DHT22;11742;53.532;-1.478;2023-04-25T08:07:58;9.50;68.20
23147;DHT22;11742;53.532;-1.478;2023-04-25T08:10:43;9.60;68.40
23147;DHT22;11742;53.532;-1.478;2023-04-25T08:13:27;9.70;68.50
23147;DHT22;11742;53.532;-1.478;2023-04-25T08:16:11;9.80;68.60
23147;DHT22;11742;53.532;-1.478;2023-04-25T08:18:55;9.90;68.70
23147;DHT22;11742;53.532;-1.478;2023-04-25T08:21:40;10.00;68.90
23147;DHT22;11742;53.532;-1.478;2023-04-25T08:24:24;10.10;69.00
23147;DHT22;11742;53.532;-1.478;2023-04-25T08:27:08;10.20;69.10
23147;DHT22;11742;53.532;-1.478;2023-04-25T08:29:52;10.30;69.20
23147;DHT22;11742;53.532;-1.478;2023-04-25T08:32:37;10.40;69.40
23147;DHT22;11742;53.532;-1.478;2023-04-25T08:35:24;10.50;69.60
23147;DHT22;11742;53.532;-1.478;2023-04-25T08:38:08;10.60;69.70
23147;DHT22;11742;53.532;-1.478;2023-04-25T08:40:53;10.70;69.90
23147;DHT22;11742;53.532;-1.478;2023-04-25T08:43:37;10.70;69.90
23147;DHT22;11742;53.532;-1.478;2023-04-25T08:46:23;10.90;70.00
23147;DHT22;11742;53.532;-1.478;2023-04-25T08:49:08;11.00;70.10
23147;DHT22;11742;53.532;-1.478;2023-04-25T08:51:56;11.10;70.30
23147;DHT22;11742;53.532;-1.478;2023-04-25T08:54:43;11.20;70.40
23147;DHT22;11742;53.532;-1.478;2023-04-25T08:57:27;11.30;70.50
23147;DHT22;11742;53.532;-1.478;2023-04-25T09:00:13;11.40;70.60
23147;DHT22;11742;53.532;-1.478;2023-04-25T09:02:58;11.50;70.70
23147;DHT22;11742;53.532;-1.478;2023-04-25T09:05:42;11.60;69.80
23147;DHT22;11742;53.532;-1.478;2023-04-25T09:08:26;11.70;68.90
23147;DHT22;11742;53.532;-1.478;2023-04-25T09:11:12;11.80;69.70
23147;DHT22;11742;53.532;-1.478;2023-04-25T09:14:12;11.90;70.20
23147;DHT22;11742;53.532;-1.478;2023-04-25T09:19:40;12.10;70.50
23147;DHT22;11742;53.532;-1.478;2023-04-25T09:22:25;12.20;70.70
23147;DHT22;11742;53.532;-1.478;2023-04-25T09:25:10;12.30;70.80
23147;DHT22;11742;53.532;-1.478;2023-04-25T09:27:55;12.40;70.80
23147;DHT22;11742;53.532;-1.478;2023-04-25T09:30:39;12.50;70.80
23147;DHT22;11742;53.532;-1.478;2023-04-25T09:33:31;12.60;71.00
23147;DHT22;11742;53.532;-1.478;2023-04-25T09:36:15;12.70;71.10
23147;DHT22;11742;53.532;-1.478;2023-04-25T09:39:00;12.80;71.10
23147;DHT22;11742;53.532;-1.478;2023-04-25T09:41:45;12.90;71.20
23147;DHT22;11742;53.532;-1.478;2023-04-25T09:44:29;13.00;71.20
23147;DHT22;11742;53.532;-1.478;2023-04-25T09:47:14;13.10;71.10
23147;DHT22;11742;53.532;-1.478;2023-04-25T09:49:59;13.20;71.20
23147;DHT22;11742;53.532;-1.478;2023-04-25T09:52:44;13.30;71.20
23147;DHT22;11742;53.532;-1.478;2023-04-25T09:55:28;13.40;71.20
23147;DHT22;11742;53.532;-1.478;2023-04-25T09:58:12;13.50;71.30
23147;DHT22;11742;53.532;-1.478;2023-04-25T10:00:59;13.60;71.30
23147;DHT22;11742;53.532;-1.478;2023-04-25T10:03:43;13.70;71.30
23147;DHT22;11742;53.532;-1.478;2023-04-25T10:06:30;13.80;71.40
23147;DHT22;11742;53.532;-1.478;2023-04-25T10:09:15;13.90;71.40
23147;DHT22;11742;53.532;-1.478;2023-04-25T10:12:02;14.00;71.40
23147;DHT22;11742;53.532;-1.478;2023-04-25T10:14:47;14.10;71.50
23147;DHT22;11742;53.532;-1.478;2023-04-25T10:17:31;14.20;71.40
23147;DHT22;11742;53.532;-1.478;2023-04-25T10:20:17;14.30;71.40
23147;DHT22;11742;53.532;-1.478;2023-04-25T10:23:14;14.40;71.40
23147;DHT22;11742;53.532;-1.478;2023-04-25T10:25:59;14.50;71.30
23147;DHT22;11742;53.532;-1.478;2023-04-25T10:29:03;14.60;71.40
23147;DHT22;11742;53.532;-1.478;2023-04-25T10:31:47;14.70;71.40
23147;DHT22;11742;53.532;-1.478;2023-04-25T10:34:41;14.80;71.50
23147;DHT22;11742;53.532;-1.478;2023-04-25T10:37:26;14.90;71.40
23147;DHT22;11742;53.532;-1.478;2023-04-25T10:40:11;15.00;71.30
23147;DHT22;11742;53.532;-1.478;2023-04-25T10:42:55;15.10;71.30
23147;DHT22;11742;53.532;-1.478;2023-04-25T10:45:52;15.20;71.10
23147;DHT22;11742;53.532;-1.478;2023-04-25T10:48:36;15.30;71.20
23147;DHT22;11742;53.532;-1.478;2023-04-25T10:54:09;15.50;71.10
23147;DHT22;11742;53.532;-1.478;2023-04-25T10:56:53;15.60;71.00
23147;DHT22;11742;53.532;-1.478;2023-04-25T10:59:37;15.60;70.90
23147;DHT22;11742;53.532;-1.478;2023-04-25T11:02:25;15.70;70.90
23147;DHT22;11742;53.532;-1.478;2023-04-25T11:05:09;15.80;70.80
23147;DHT22;11742;53.532;-1.478;2023-04-25T11:07:54;15.90;70.60
23147;DHT22;11742;53.532;-1.478;2023-04-25T11:10:41;16.00;70.40
23147;DHT22;11742;53.532;-1.478;2023-04-25T11:13:29;16.10;70.20
23147;DHT22;11742;53.532;-1.478;2023-04-25T11:16:13;16.20;70.20
23147;DHT22;11742;53.532;-1.478;2023-04-25T11:18:58;16.30;70.10
23147;DHT22;11742;53.532;-1.478;2023-04-25T11:21:42;16.40;70.00
23147;DHT22;11742;53.532;-1.478;2023-04-25T11:24:27;16.40;69.90
23147;DHT22;11742;53.532;-1.478;2023-04-25T11:27:11;16.50;69.70
23147;DHT22;11742;53.532;-1.478;2023-04-25T11:29:55;16.60;69.60
23147;DHT22;11742;53.532;-1.478;2023-04-25T11:32:40;16.70;69.50
23147;DHT22;11742;53.532;-1.478;2023-04-25T11:35:25;16.70;69.30
23147;DHT22;11742;53.532;-1.478;2023-04-25T11:38:09;16.80;69.30
23147;DHT22;11742;53.532;-1.478;2023-04-25T11:40:54;16.90;69.30
23147;DHT22;11742;53.532;-1.478;2023-04-25T11:43:38;17.00;69.30
23147;DHT22;11742;53.532;-1.478;2023-04-25T11:46:23;17.10;69.20
23147;DHT22;11742;53.532;-1.478;2023-04-25T11:49:07;17.10;69.10
23147;DHT22;11742;53.532;-1.478;2023-04-25T11:51:51;17.20;69.00
23147;DHT22;11742;53.532;-1.478;2023-04-25T11:54:36;17.30;68.80
23147;DHT22;11742;53.532;-1.478;2023-04-25T11:57:20;17.40;68.40
23147;DHT22;11742;53.532;-1.478;2023-04-25T12:00:14;17.50;68.30
23147;DHT22;11742;53.532;-1.478;2023-04-25T12:03:00;17.60;68.80
23147;DHT22;11742;53.532;-1.478;2023-04-25T12:05:46;17.60;66.70
23147;DHT22;11742;53.532;-1.478;2023-04-25T12:08:30;17.70;67.30
23147;DHT22;11742;53.532;-1.478;2023-04-25T12:11:21;17.70;64.60
23147;DHT22;11742;53.532;-1.478;2023-04-25T12:14:05;17.70;63.40
23147;DHT22;11742;53.532;-1.478;2023-04-25T12:16:49;17.70;62.20
23147;DHT22;11742;53.532;-1.478;2023-04-25T12:19:35;17.80;61.80
23147;DHT22;11742;53.532;-1.478;2023-04-25T12:22:23;17.80;61.60
23147;DHT22;11742;53.532;-1.478;2023-04-25T12:25:07;17.80;61.60
23147;DHT22;11742;53.532;-1.478;2023-04-25T12:27:51;17.80;62.00
23147;DHT22;11742;53.532;-1.478;2023-04-25T12:33:40;17.90;62.10
23147;DHT22;11742;53.532;-1.478;2023-04-25T12:36:25;18.00;63.70
23147;DHT22;11742;53.532;-1.478;2023-04-25T12:39:14;18.00;63.90
23147;DHT22;11742;53.532;-1.478;2023-04-25T12:41:58;18.10;64.60
23147;DHT22;11742;53.532;-1.478;2023-04-25T12:44:43;18.20;63.90
23147;DHT22;11742;53.532;-1.478;2023-04-25T12:47:27;18.30;63.40
23147;DHT22;11742;53.532;-1.478;2023-04-25T12:50:12;18.30;63.20
23147;DHT22;11742;53.532;-1.478;2023-04-25T12:52:56;18.40;61.70
23147;DHT22;11742;53.532;-1.478;2023-04-25T12:55:40;18.40;63.90
23147;DHT22;11742;53.532;-1.478;2023-04-25T12:58:25;18.50;62.60
23147;DHT22;11742;53.532;-1.478;2023-04-25T13:01:09;18.60;62.50
23147;DHT22;11742;53.532;-1.478;2023-04-25T13:03:53;18.60;61.00
23147;DHT22;11742;53.532;-1.478;2023-04-25T13:06:38;18.70;60.40
23147;DHT22;11742;53.532;-1.478;2023-04-25T13:09:22;18.80;60.50
23147;DHT22;11742;53.532;-1.478;2023-04-25T13:12:06;18.80;59.30
23147;DHT22;11742;53.532;-1.478;2023-04-25T13:14:51;18.90;58.90
23147;DHT22;11742;53.532;-1.478;2023-04-25T13:17:35;19.00;58.40
23147;DHT22;11742;53.532;-1.478;2023-04-25T13:20:19;19.00;57.80
23147;DHT22;11742;53.532;-1.478;2023-04-25T13:23:06;19.00;58.50
23147;DHT22;11742;53.532;-1.478;2023-04-25T13:25:50;19.10;57.40
23147;DHT22;11742;53.532;-1.478;2023-04-25T13:28:34;19.10;57.30
23147;DHT22;11742;53.532;-1.478;2023-04-25T13:31:18;19.10;57.20
23147;DHT22;11742;53.532;-1.478;2023-04-25T13:34:02;19.20;57.00
23147;DHT22;11742;53.532;-1.478;2023-04-25T13:36:49;19.20;57.40
23147;DHT22;11742;53.532;-1.478;2023-04-25T13:39:33;19.20;58.00
23147;DHT22;11742;53.532;-1.478;2023-04-25T13:42:17;19.20;57.60
23147;DHT22;11742;53.532;-1.478;2023-04-25T13:45:02;19.20;57.20
23147;DHT22;11742;53.532;-1.478;2023-04-25T13:47:46;19.20;56.20
23147;DHT22;11742;53.532;-1.478;2023-04-25T13:50:31;19.20;55.30
23147;DHT22;11742;53.532;-1.478;2023-04-25T13:53:15;19.20;55.60
23147;DHT22;11742;53.532;-1.478;2023-04-25T13:56:00;19.20;56.00
23147;DHT22;11742;53.532;-1.478;2023-04-25T13:58:44;19.20;55.30
23147;DHT22;11742;53.532;-1.478;2023-04-25T14:01:28;19.20;54.70
23147;DHT22;11742;53.532;-1.478;2023-04-25T14:04:14;19.20;54.90
23147;DHT22;11742;53.532;-1.478;2023-04-25T14:06:59;19.20;54.20
23147;DHT22;11742;53.532;-1.478;2023-04-25T14:09:43;19.20;53.70
23147;DHT22;11742;53.532;-1.478;2023-04-25T14:12:27;19.30;54.90
23147;DHT22;11742;53.532;-1.478;2023-04-25T14:15:11;19.30;55.60
23147;DHT22;11742;53.532;-1.478;2023-04-25T14:17:56;19.30;56.10
23147;DHT22;11742;53.532;-1.478;2023-04-25T14:20:40;19.30;56.20
23147;DHT22;11742;53.532;-1.478;2023-04-25T14:23:25;19.30;56.10
23147;DHT22;11742;53.532;-1.478;2023-04-25T14:26:09;19.40;56.20
23147;DHT22;11742;53.532;-1.478;2023-04-25T14:28:56;19.40;55.40
23147;DHT22;11742;53.532;-1.478;2023-04-25T14:31:40;19.40;54.70
23147;DHT22;11742;53.532;-1.478;2023-04-25T14:34:24;19.40;54.60
23147;DHT22;11742;53.532;-1.478;2023-04-25T14:37:09;19.50;54.00
23147;DHT22;11742;53.532;-1.478;2023-04-25T14:39:53;19.50;53.80
23147;DHT22;11742;53.532;-1.478;2023-04-25T14:42:37;19.50;53.50
23147;DHT22;11742;53.532;-1.478;2023-04-25T14:45:21;19.50;53.50
23147;DHT22;11742;53.532;-1.478;2023-04-25T14:48:06;19.50;53.00
23147;DHT22;11742;53.532;-1.478;2023-04-25T14:50:50;19.50;53.30
23147;DHT22;11742;53.532;-1.478;2023-04-25T14:53:35;19.50;53.20
23147;DHT22;11742;53.532;-1.478;2023-04-25T14:56:19;19.50;53.70
23147;DHT22;11742;53.532;-1.478;2023-04-25T14:59:03;19.50;53.30
23147;DHT22;11742;53.532;-1.478;2023-04-25T15:01:49;19.50;53.10
23147;DHT22;11742;53.532;-1.478;2023-04-25T15:04:33;19.50;52.80
23147;DHT22;11742;53.532;-1.478;2023-04-25T15:07:18;19.50;52.90
23147;DHT22;11742;53.532;-1.478;2023-04-25T15:10:02;19.50;53.00
23147;DHT22;11742;53.532;-1.478;2023-04-25T15:12:46;19.50;53.40
23147;DHT22;11742;53.532;-1.478;2023-04-25T15:15:30;19.40;52.80
23147;DHT22;11742;53.532;-1.478;2023-04-25T15:18:15;19.50;52.50
23147;DHT22;11742;53.532;-1.478;2023-04-25T15:20:59;19.40;52.40
23147;DHT22;11742;53.532;-1.478;2023-04-25T15:23:43;19.40;52.60
23147;DHT22;11742;53.532;-1.478;2023-04-25T15:26:27;19.40;52.00
23147;DHT22;11742;53.532;-1.478;2023-04-25T15:29:11;19.40;51.60
23147;DHT22;11742;53.532;-1.478;2023-04-25T15:31:56;19.40;51.60
23147;DHT22;11742;53.532;-1.478;2023-04-25T15:34:40;19.40;51.60
23147;DHT22;11742;53.532;-1.478;2023-04-25T15:37:24;19.40;52.00
23147;DHT22;11742;53.532;-1.478;2023-04-25T15:40:15;19.40;52.00
23147;DHT22;11742;53.532;-1.478;2023-04-25T15:42:59;19.50;52.40
23147;DHT22;11742;53.532;-1.478;2023-04-25T15:45:44;19.50;52.30
23147;DHT22;11742;53.532;-1.478;2023-04-25T15:48:28;19.50;53.00
23147;DHT22;11742;53.532;-1.478;2023-04-25T15:51:12;19.50;53.30
23147;DHT22;11742;53.532;-1.478;2023-04-25T15:53:56;19.50;53.30
23147;DHT22;11742;53.532;-1.478;2023-04-25T15:56:44;19.50;53.90
23147;DHT22;11742;53.532;-1.478;2023-04-25T15:59:29;19.60;54.00
23147;DHT22;11742;53.532;-1.478;2023-04-25T16:02:13;19.60;53.70
23147;DHT22;11742;53.532;-1.478;2023-04-25T16:04:57;19.60;53.80
23147;DHT22;11742;53.532;-1.478;2023-04-25T16:07:42;19.70;53.90
23147;DHT22;11742;53.532;-1.478;2023-04-25T16:10:26;19.70;53.70
23147;DHT22;11742;53.532;-1.478;2023-04-25T16:13:10;19.70;53.40
23147;DHT22;11742;53.532;-1.478;2023-04-25T16:15:55;19.80;53.80
23147;DHT22;11742;53.532;-1.478;2023-04-25T16:18:39;19.80;53.70
23147;DHT22;11742;53.532;-1.478;2023-04-25T16:21:24;19.80;53.60
23147;DHT22;11742;53.532;-1.478;2023-04-25T16:24:08;19.80;53.50
23147;DHT22;11742;53.532;-1.478;2023-04-25T16:26:53;19.80;53.20
23147;DHT22;11742;53.532;-1.478;2023-04-25T16:29:37;19.90;52.70
23147;DHT22;11742;53.532;-1.478;2023-04-25T16:32:22;19.90;53.00
23147;DHT22;11742;53.532;-1.478;2023-04-25T16:35:06;19.90;52.00
23147;DHT22;11742;53.532;-1.478;2023-04-25T16:37:51;19.90;52.70
23147;DHT22;11742;53.532;-1.478;2023-04-25T16:40:35;19.90;52.40
23147;DHT22;11742;53.532;-1.478;2023-04-25T16:43:19;20.00;52.10
23147;DHT22;11742;53.532;-1.478;2023-04-25T16:46:04;20.00;52.00
23147;DHT22;11742;53.532;-1.478;2023-04-25T16:48:49;20.00;51.30
23147;DHT22;11742;53.532;-1.478;2023-04-25T16:51:33;20.00;51.30
23147;DHT22;11742;53.532;-1.478;2023-04-25T16:54:17;20.00;51.90
23147;DHT22;11742;53.532;-1.478;2023-04-25T16:57:01;20.00;51.70
23147;DHT22;11742;53.532;-1.478;2023-04-25T16:59:48;20.00;51.10
23147;DHT22;11742;53.532;-1.478;2023-04-25T17:02:32;20.00;51.30
23147;DHT22;11742;53.532;-1.478;2023-04-25T17:05:16;20.00;51.80
23147;DHT22;11742;53.532;-1.478;2023-04-25T17:08:00;20.00;52.30
23147;DHT22;11742;53.532;-1.478;2023-04-25T17:10:45;20.00;51.40
23147;DHT22;11742;53.532;-1.478;2023-04-25T17:13:29;20.00;51.20
23147;DHT22;11742;53.532;-1.478;2023-04-25T17:16:13;20.00;50.90
23147;DHT22;11742;53.532;-1.478;2023-04-25T17:18:59;20.00;51.10
23147;DHT22;11742;53.532;-1.478;2023-04-25T17:21:44;20.00;50.80